createdAt,value
2022-10-28T00:02:16.793Z,26.92
2022-10-28T00:04:45.371Z,26.67
2022-10-28T00:07:14.056Z,23.60
2022-10-28T00:09:45.668Z,28.70
2022-10-28T00:12:16.129Z,25.98
2022-10-28T00:14:46.442Z,22.20
2022-10-28T00:17:16.838Z,34.25
2022-10-28T00:19:46.243Z,29.75
2022-10-28T00:22:15.803Z,29.75
2022-10-28T00:24:44.468Z,27.50
2022-10-28T00:27:12.809Z,27.95
2022-10-28T00:29:41.523Z,28.65
2022-10-28T00:32:10.416Z,25.65
2022-10-28T00:34:40.324Z,30.25
2022-10-28T00:37:09.833Z,30.02
2022-10-28T00:39:38.469Z,29.92
2022-10-28T00:42:08.970Z,34.35
2022-10-28T00:44:59.458Z,33.20
2022-10-28T00:47:55.750Z,38.13
2022-10-28T00:50:48.446Z,28.85
2022-10-28T00:53:23.870Z,30.98
2022-10-28T00:55:55.353Z,33.60
2022-10-28T00:58:30.503Z,30.52
2022-10-28T01:00:59.333Z,33.80
2022-10-28T01:03:28.335Z,29.98
2022-10-28T01:06:01.075Z,35.78
2022-10-28T01:08:29.788Z,33.35
2022-10-28T01:11:22.814Z,25.15
2022-10-28T01:14:11.511Z,35.85
2022-10-28T01:16:57.343Z,30.80
2022-10-28T01:20:10.173Z,28.98
2022-10-28T01:22:50.731Z,35.35
2022-10-28T01:26:04.129Z,32.72
2022-10-28T01:29:02.377Z,34.33
2022-10-28T01:31:43.827Z,29.73
2022-10-28T01:34:24.598Z,35.03
2022-10-28T01:37:02.359Z,32.08
2022-10-28T01:39:41.250Z,29.15
2022-10-28T01:42:23.774Z,33.08
2022-10-28T01:45:03.195Z,42.08
2022-10-28T01:47:42.223Z,38.95
2022-10-28T01:50:16.985Z,28.63
2022-10-28T01:52:48.828Z,37.13
2022-10-28T01:55:23.034Z,36.15
2022-10-28T01:57:54.664Z,36.38
2022-10-28T02:00:23.169Z,38.33
2022-10-28T02:02:58.851Z,38.05
2022-10-28T02:05:44.529Z,34.33
2022-10-28T02:08:55.571Z,28.20
2022-10-28T02:11:54.497Z,33.67
2022-10-28T02:14:41.702Z,30.40
2022-10-28T02:17:22.671Z,26.63
2022-10-28T02:20:05.850Z,30.48
2022-10-28T02:22:44.601Z,32.45
2022-10-28T02:25:20.422Z,34.63
2022-10-28T02:27:55.145Z,34.22
2022-10-28T02:30:30.340Z,36.40
2022-10-28T02:33:02.930Z,32.47
2022-10-28T02:35:42.542Z,32.80
2022-10-28T02:38:17.063Z,35.97
2022-10-28T02:43:24.359Z,34.63
2022-10-28T02:45:58.221Z,31.00
2022-10-28T02:48:33.950Z,34.13
2022-10-28T02:51:11.158Z,27.40
2022-10-28T02:53:54.353Z,38.95
2022-10-28T02:56:30.697Z,36.38
2022-10-28T02:59:00.733Z,31.15
2022-10-28T03:01:35.777Z,32.70
2022-10-28T03:04:06.645Z,32.00
2022-10-28T03:06:37.541Z,29.38
2022-10-28T03:09:08.206Z,30.98
2022-10-28T03:11:37.044Z,35.58
2022-10-28T03:14:09.605Z,42.78
2022-10-28T03:16:40.683Z,31.77
2022-10-28T03:21:41.933Z,30.42
2022-10-28T03:24:11.038Z,30.33
2022-10-28T03:26:40.196Z,31.63
2022-10-28T03:29:09.214Z,32.25
2022-10-28T03:31:37.699Z,38.72
2022-10-28T03:34:08.061Z,39.17
2022-10-28T03:36:37.400Z,34.10
2022-10-28T03:39:07.831Z,28.00
2022-10-28T03:41:38.005Z,25.27
2022-10-28T03:44:08.879Z,32.22
2022-10-28T03:46:38.446Z,32.28
2022-10-28T03:49:09.942Z,32.63
2022-10-28T03:51:38.972Z,35.03
2022-10-28T03:54:09.360Z,34.47
2022-10-28T03:56:45.559Z,30.17
2022-10-28T03:59:19.263Z,27.58
2022-10-28T04:01:49.191Z,26.55
2022-10-28T04:04:17.741Z,30.13
2022-10-28T04:06:46.516Z,34.63
2022-10-28T04:09:16.843Z,34.00
2022-10-28T04:11:46.541Z,27.05
2022-10-28T04:14:15.833Z,26.65
2022-10-28T04:16:44.215Z,29.08
2022-10-28T04:19:12.814Z,28.48
2022-10-28T04:21:42.415Z,33.05
2022-10-28T04:24:11.283Z,29.52
2022-10-28T04:26:42.808Z,31.77
2022-10-28T04:29:12.893Z,27.75
2022-10-28T04:31:41.745Z,30.58
2022-10-28T04:34:11.255Z,35.17
2022-10-28T04:36:40.149Z,31.63
2022-10-28T04:39:12.106Z,37.28
2022-10-28T04:41:43.445Z,26.63
2022-10-28T04:44:14.603Z,28.20
2022-10-28T04:46:45.139Z,28.83
2022-10-28T04:49:19.852Z,36.38
2022-10-28T04:51:50.687Z,29.85
2022-10-28T04:54:19.913Z,29.15
2022-10-28T04:56:51.229Z,26.55
2022-10-28T04:59:21.301Z,33.58
2022-10-28T05:01:50.482Z,28.92
2022-10-28T05:04:19.124Z,28.20
2022-10-28T05:06:49.150Z,33.25
2022-10-28T05:09:22.299Z,29.38
2022-10-28T05:11:54.388Z,27.55
2022-10-28T05:14:25.025Z,26.88
2022-10-28T05:16:53.779Z,37.13
2022-10-28T05:19:22.595Z,26.40
2022-10-28T05:21:51.585Z,28.85
2022-10-28T05:24:21.617Z,30.48
2022-10-28T05:26:52.393Z,29.10
2022-10-28T05:29:24.534Z,24.08
2022-10-28T05:31:53.821Z,23.27
2022-10-28T05:34:23.538Z,29.30
2022-10-28T05:36:52.725Z,24.55
2022-10-28T05:39:22.044Z,25.13
2022-10-28T05:41:52.680Z,30.02
2022-10-28T05:44:22.566Z,31.25
2022-10-28T05:46:51.817Z,29.83
2022-10-28T05:49:20.570Z,30.55
2022-10-28T05:51:49.416Z,26.75
2022-10-28T05:54:21.315Z,28.52
2022-10-28T05:56:54.994Z,35.55
2022-10-28T05:59:25.216Z,32.42
2022-10-28T06:01:55.156Z,26.90
2022-10-28T06:04:25.519Z,25.80
2022-10-28T06:06:57.401Z,27.70
2022-10-28T06:09:30.623Z,28.13
2022-10-28T06:12:00.206Z,31.52
2022-10-28T06:14:29.869Z,30.50
2022-10-28T06:17:01.812Z,23.73
2022-10-28T06:19:30.667Z,26.02
2022-10-28T06:21:59.680Z,31.75
2022-10-28T06:24:29.539Z,26.35
2022-10-28T06:27:00.075Z,27.85
2022-10-28T06:29:32.952Z,31.15
2022-10-28T06:32:02.622Z,26.02
2022-10-28T06:34:30.915Z,24.90
2022-10-28T06:37:02.362Z,24.38
2022-10-28T06:45:07.023Z,31.40
2022-10-28T06:47:41.521Z,27.02
2022-10-28T06:50:11.945Z,35.05
2022-10-28T06:52:42.614Z,22.27
2022-10-28T06:55:25.125Z,26.25
2022-10-28T06:58:18.442Z,35.55
2022-10-28T07:00:47.292Z,30.35
2022-10-28T07:03:16.353Z,28.75
2022-10-28T07:05:45.537Z,24.10
2022-10-28T07:08:16.532Z,23.08
2022-10-28T07:10:47.207Z,27.90
2022-10-28T07:13:19.211Z,32.67
2022-10-28T07:15:53.132Z,30.35
2022-10-28T07:18:22.687Z,18.52
2022-10-28T07:20:52.427Z,24.77
2022-10-28T07:23:24.481Z,25.98
2022-10-28T07:25:58.398Z,21.98
2022-10-28T07:28:29.465Z,19.80
2022-10-28T07:31:04.254Z,23.48
2022-10-28T07:33:34.164Z,24.60
2022-10-28T07:36:05.156Z,28.00
2022-10-28T07:38:34.735Z,24.27
2022-10-28T07:41:08.103Z,21.33
2022-10-28T07:43:39.979Z,32.50
2022-10-28T07:46:09.872Z,21.88
2022-10-28T07:48:40.155Z,19.30
2022-10-28T07:51:13.446Z,25.35
2022-10-28T07:53:43.133Z,20.55
2022-10-28T07:56:14.835Z,28.33
2022-10-28T07:58:47.826Z,20.50
2022-10-28T08:01:20.797Z,22.77
2022-10-28T08:03:52.530Z,24.27
2022-10-28T08:06:24.997Z,27.10
2022-10-28T08:09:03.135Z,21.08
2022-10-28T08:11:32.852Z,20.67
2022-10-28T08:14:11.773Z,20.13
2022-10-28T08:16:40.452Z,28.83
2022-10-28T08:19:10.202Z,21.48
2022-10-28T08:21:40.044Z,19.17
2022-10-28T08:24:10.748Z,25.60
2022-10-28T08:26:39.901Z,23.35
2022-10-28T08:29:13.076Z,23.35
2022-10-28T08:31:43.044Z,23.65
2022-10-28T08:34:13.436Z,20.90
2022-10-28T08:36:42.417Z,22.70
2022-10-28T08:39:11.236Z,22.88
2022-10-28T08:41:48.157Z,20.00
2022-10-28T08:44:58.364Z,19.83
2022-10-28T08:47:49.546Z,27.73
2022-10-28T08:50:22.676Z,27.00
2022-10-28T08:52:58.688Z,18.30
2022-10-28T08:55:36.005Z,25.60
2022-10-28T08:58:12.195Z,16.42
2022-10-28T09:00:46.471Z,22.90
2022-10-28T09:03:22.483Z,22.85
2022-10-28T09:06:04.428Z,21.30
2022-10-28T09:08:38.747Z,24.40
2022-10-28T09:11:37.973Z,14.93
2022-10-28T09:14:33.462Z,19.10
2022-10-28T09:17:15.785Z,24.43
2022-10-28T09:19:52.869Z,23.90
2022-10-28T09:22:35.903Z,23.88
2022-10-28T09:25:24.597Z,19.55
2022-10-28T09:28:12.155Z,19.52
2022-10-28T09:30:59.781Z,20.48
2022-10-28T09:34:02.119Z,23.30
2022-10-28T09:36:40.758Z,20.92
2022-10-28T09:39:26.789Z,18.67
2022-10-28T09:42:01.465Z,22.70
2022-10-28T09:44:46.572Z,27.25
2022-10-28T09:47:21.364Z,26.10
2022-10-28T09:49:57.710Z,23.63
2022-10-28T09:52:36.474Z,21.63
2022-10-28T09:55:20.504Z,18.80
2022-10-28T09:57:52.527Z,24.73
2022-10-28T10:00:22.783Z,22.55
2022-10-28T10:02:57.695Z,27.83
2022-10-28T10:05:33.152Z,25.90
2022-10-28T10:10:48.529Z,22.08
2022-10-28T10:13:22.097Z,20.98
2022-10-28T10:15:56.892Z,20.75
2022-10-28T10:18:33.023Z,9.75
2022-10-28T10:21:07.032Z,20.80
2022-10-28T10:26:12.429Z,18.42
2022-10-28T10:28:47.904Z,24.42
2022-10-28T10:31:23.706Z,16.65
2022-10-28T10:33:57.947Z,25.27
2022-10-28T10:36:31.727Z,16.47
2022-10-28T10:39:04.304Z,16.90
2022-10-28T10:41:38.095Z,31.10
2022-10-28T10:44:33.639Z,19.13
2022-10-28T10:47:23.168Z,21.08
2022-10-28T10:49:56.921Z,20.38
2022-10-28T10:52:29.785Z,18.75
2022-10-28T10:55:10.120Z,22.92
2022-10-28T10:57:49.174Z,20.92
2022-10-28T11:00:23.420Z,21.85
2022-10-28T11:02:56.357Z,24.35
2022-10-28T11:05:32.252Z,18.15
2022-10-28T11:08:18.764Z,19.77
2022-10-28T11:11:10.948Z,22.67
2022-10-28T11:13:46.400Z,23.80
2022-10-28T11:16:26.067Z,15.77
2022-10-28T11:19:01.906Z,25.92
2022-10-28T11:22:16.072Z,16.70
2022-10-28T11:25:28.778Z,18.70
2022-10-28T11:28:47.639Z,17.42
2022-10-28T11:31:44.960Z,25.23
2022-10-28T11:35:01.597Z,20.42
2022-10-28T11:37:51.064Z,21.15
2022-10-28T11:40:38.012Z,19.80
2022-10-28T11:43:32.297Z,22.38
2022-10-28T11:46:14.130Z,18.08
2022-10-28T11:52:09.822Z,19.05
2022-10-28T11:55:03.808Z,23.80
2022-10-28T11:58:09.086Z,20.30
2022-10-28T12:01:04.140Z,26.55
2022-10-28T12:03:57.986Z,20.83
2022-10-28T12:07:06.308Z,28.70
2022-10-28T12:10:01.180Z,23.30
2022-10-28T12:12:47.287Z,20.17
2022-10-28T12:15:34.920Z,18.83
2022-10-28T12:18:16.715Z,25.20
2022-10-28T12:20:55.300Z,31.75
2022-10-28T12:23:28.032Z,21.42
2022-10-28T12:26:09.180Z,25.17
2022-10-28T12:28:48.152Z,30.00
2022-10-28T12:31:25.785Z,22.08
2022-10-28T12:34:21.747Z,21.65
2022-10-28T12:37:03.671Z,22.70
2022-10-28T12:39:49.738Z,24.02
2022-10-28T12:42:29.877Z,22.77
2022-10-28T12:45:07.762Z,22.02
2022-10-28T12:47:44.339Z,17.88
2022-10-28T12:50:26.790Z,24.05
2022-10-28T12:53:25.019Z,25.90
2022-10-28T12:56:01.956Z,23.65
2022-10-28T12:58:37.034Z,28.52
2022-10-28T13:01:16.558Z,19.85
2022-10-28T13:03:48.653Z,27.17
2022-10-28T13:06:47.851Z,28.90
2022-10-28T13:09:54.017Z,20.25
2022-10-28T13:13:12.481Z,22.67
2022-10-28T13:16:23.736Z,20.40
2022-10-28T13:19:30.225Z,29.00
2022-10-28T13:25:10.791Z,24.50
2022-10-28T13:27:40.170Z,23.52
2022-10-28T13:30:20.166Z,21.30
2022-10-28T13:33:01.730Z,23.77
2022-10-28T13:35:32.744Z,28.42
2022-10-28T13:38:02.893Z,25.52
2022-10-28T13:41:13.400Z,24.35
2022-10-28T13:44:32.094Z,23.85
2022-10-28T13:47:27.497Z,19.20
2022-10-28T13:50:42.093Z,30.60
2022-10-28T13:53:59.609Z,20.95
2022-10-28T13:56:50.852Z,24.20
2022-10-28T13:59:31.373Z,21.88
2022-10-28T14:02:33.141Z,25.50
2022-10-28T14:05:02.143Z,28.23
2022-10-28T14:07:35.615Z,20.95
2022-10-28T14:10:24.920Z,29.92
2022-10-28T14:13:04.853Z,22.80
2022-10-28T14:15:41.023Z,25.83
2022-10-28T14:21:29.921Z,27.35
2022-10-28T14:24:40.234Z,26.45
2022-10-28T14:27:44.055Z,20.33
2022-10-28T14:30:33.330Z,17.45
2022-10-28T14:33:24.485Z,23.50
2022-10-28T14:36:34.496Z,18.27
2022-10-28T14:39:45.904Z,32.38
2022-10-28T14:42:42.975Z,19.02
2022-10-28T14:49:13.951Z,26.92
2022-10-28T14:51:46.297Z,24.63
2022-10-28T14:54:24.407Z,24.92
2022-10-28T14:56:59.651Z,26.30
2022-10-28T14:59:33.832Z,19.65
2022-10-28T15:02:14.551Z,16.15
2022-10-28T15:05:15.132Z,29.27
2022-10-28T15:07:45.741Z,23.40
2022-10-28T15:10:34.845Z,32.15
2022-10-28T15:13:07.533Z,17.55
2022-10-28T15:15:37.879Z,17.10
2022-10-28T15:18:23.918Z,25.30
2022-10-28T15:21:10.965Z,24.02
2022-10-28T15:23:41.868Z,23.05
2022-10-28T15:26:17.727Z,26.85
2022-10-28T15:28:48.424Z,22.55
2022-10-28T15:31:39.893Z,22.92
2022-10-28T15:34:24.857Z,21.42
2022-10-28T15:36:54.913Z,27.03
2022-10-28T15:39:27.002Z,25.27
2022-10-28T15:42:03.314Z,26.02
2022-10-28T15:44:39.701Z,20.88
2022-10-28T15:47:29.728Z,23.23
2022-10-28T15:50:26.877Z,19.63
2022-10-28T15:53:18.999Z,23.13
2022-10-28T15:56:06.670Z,21.85
2022-10-28T15:58:40.422Z,25.25
2022-10-28T16:07:48.048Z,25.05
2022-10-28T16:10:17.491Z,26.17
2022-10-28T16:15:51.024Z,20.42
2022-10-28T16:18:23.055Z,25.33
2022-10-28T16:20:52.606Z,21.70
2022-10-28T16:23:25.085Z,27.27
2022-10-28T16:25:58.850Z,27.20
2022-10-28T16:28:28.769Z,29.55
2022-10-28T16:31:00.556Z,25.92
2022-10-28T16:33:34.296Z,34.95
2022-10-28T16:36:04.029Z,42.92
2022-10-28T16:38:32.692Z,47.72
2022-10-28T16:41:02.801Z,27.08
2022-10-28T16:43:33.196Z,27.73
2022-10-28T16:46:03.057Z,25.88
2022-10-28T16:48:33.189Z,26.30
2022-10-28T16:51:10.354Z,24.30
2022-10-28T16:53:39.056Z,24.23
2022-10-28T16:56:13.741Z,25.88
2022-10-28T16:58:46.553Z,27.88
2022-10-28T17:01:28.353Z,39.92
2022-10-28T17:04:42.086Z,34.13
2022-10-28T17:07:16.395Z,23.27
2022-10-28T17:09:45.433Z,21.70
2022-10-28T17:12:18.262Z,21.50
2022-10-28T17:14:47.462Z,30.70
2022-10-28T17:17:16.155Z,23.02
2022-10-28T17:19:46.710Z,23.08
2022-10-28T17:22:17.822Z,27.27
2022-10-28T17:24:46.531Z,18.15
2022-10-28T17:27:15.191Z,28.17
2022-10-28T17:29:44.218Z,22.98
2022-10-28T17:32:14.256Z,23.55
2022-10-28T17:34:43.628Z,27.15
2022-10-28T17:37:13.829Z,23.83
2022-10-28T17:39:45.290Z,17.38
2022-10-28T17:42:14.395Z,26.30
2022-10-28T17:44:44.920Z,22.17
2022-10-28T17:47:16.067Z,24.23
2022-10-28T17:49:47.880Z,17.25
2022-10-28T17:52:17.327Z,17.75
2022-10-28T17:55:11.790Z,22.92
2022-10-28T17:57:40.905Z,22.23
2022-10-28T18:00:12.424Z,26.50
2022-10-28T18:02:41.388Z,20.17
2022-10-28T18:05:12.579Z,17.27
2022-10-28T18:07:42.447Z,18.23
2022-10-28T18:10:14.341Z,21.42
2022-10-28T18:12:47.901Z,20.00
2022-10-28T18:15:18.986Z,20.88
2022-10-28T18:17:52.211Z,22.08
2022-10-28T18:20:21.635Z,17.25
2022-10-28T18:22:51.513Z,16.35
2022-10-28T18:25:25.232Z,15.45
2022-10-28T18:28:00.329Z,21.70
2022-10-28T18:30:29.743Z,22.83
2022-10-28T18:33:00.813Z,17.77
2022-10-28T18:35:41.332Z,22.80
2022-10-28T18:38:12.161Z,18.92
2022-10-28T18:40:49.372Z,25.58
2022-10-28T18:43:21.731Z,14.70
2022-10-28T18:45:51.941Z,19.67
2022-10-28T18:48:22.685Z,20.92
2022-10-28T18:50:58.424Z,23.33
2022-10-28T18:53:34.746Z,21.15
2022-10-28T18:56:27.682Z,19.23
2022-10-28T18:59:00.638Z,19.98
2022-10-28T19:01:32.727Z,22.35
2022-10-28T19:04:09.160Z,23.42
2022-10-28T19:06:55.039Z,26.50
2022-10-28T19:09:40.200Z,18.02
2022-10-28T19:15:29.848Z,19.17
2022-10-28T19:18:05.963Z,26.00
2022-10-28T19:20:39.288Z,16.77
2022-10-28T19:23:12.812Z,19.77
2022-10-28T19:25:47.176Z,21.17
2022-10-28T19:28:22.134Z,18.77
2022-10-28T19:31:03.292Z,17.50
2022-10-28T19:33:35.004Z,21.80
2022-10-28T19:36:10.108Z,27.92
2022-10-28T19:38:50.670Z,31.00
2022-10-28T19:41:23.943Z,22.65
2022-10-28T19:44:01.669Z,25.13
2022-10-28T19:46:35.896Z,31.95
2022-10-28T19:49:12.618Z,17.75
2022-10-28T19:51:46.284Z,24.05
2022-10-28T19:54:18.193Z,28.45
2022-10-28T19:56:50.908Z,25.17
2022-10-28T19:59:22.517Z,27.00
2022-10-28T20:01:58.575Z,36.20
2022-10-28T20:04:33.668Z,28.73
2022-10-28T20:07:05.514Z,28.17
2022-10-28T20:09:38.428Z,24.20
2022-10-28T20:12:10.658Z,28.35
2022-10-28T20:14:47.140Z,21.85
2022-10-28T20:17:18.368Z,23.20
2022-10-28T20:19:55.027Z,27.42
2022-10-28T20:22:32.725Z,32.30
2022-10-28T20:25:16.933Z,29.40
2022-10-28T20:27:53.992Z,23.58
2022-10-28T20:30:26.930Z,33.22
2022-10-28T20:33:01.505Z,30.40
2022-10-28T20:35:35.359Z,34.30
2022-10-28T20:40:36.829Z,29.77
2022-10-28T20:43:05.204Z,35.78
2022-10-28T20:45:35.820Z,26.77
2022-10-28T20:48:04.353Z,30.48
2022-10-28T20:50:33.702Z,31.63
2022-10-28T20:53:04.423Z,28.63
2022-10-28T20:55:34.869Z,34.58
2022-10-28T20:58:03.695Z,27.50
2022-10-28T21:00:32.648Z,31.23
2022-10-28T21:03:03.647Z,32.45
2022-10-28T21:05:35.173Z,36.70
2022-10-28T21:13:52.477Z,30.90
2022-10-28T21:16:23.120Z,33.10
2022-10-28T21:18:54.670Z,35.55
2022-10-28T21:21:25.931Z,31.45
2022-10-28T21:23:55.815Z,33.38
2022-10-28T21:26:27.495Z,29.73
2022-10-28T21:28:58.138Z,40.05
2022-10-28T21:31:27.969Z,30.73
2022-10-28T21:34:00.734Z,34.30
2022-10-28T21:36:32.886Z,60.17
2022-10-28T21:39:02.795Z,53.15
2022-10-28T21:41:32.679Z,36.53
2022-10-28T21:44:05.934Z,35.90
2022-10-28T21:46:36.625Z,47.92
2022-10-28T21:49:06.596Z,38.47
2022-10-28T21:51:36.533Z,38.65
2022-10-28T21:54:05.695Z,51.65
2022-10-28T21:56:38.789Z,35.55
2022-10-28T21:59:10.476Z,32.50
2022-10-28T22:01:39.426Z,38.80
2022-10-28T22:04:09.957Z,34.83
2022-10-28T22:06:39.133Z,47.15
2022-10-28T22:09:08.763Z,27.58
2022-10-28T22:11:37.909Z,40.45
2022-10-28T22:14:09.457Z,29.98
2022-10-28T22:16:38.347Z,34.22
2022-10-28T22:19:09.951Z,31.85
2022-10-28T22:21:40.643Z,29.05
2022-10-28T22:24:10.901Z,39.22
2022-10-28T22:26:39.643Z,31.58
2022-10-28T22:29:10.054Z,31.85
2022-10-28T22:31:38.661Z,34.63
2022-10-28T22:34:07.835Z,37.55
2022-10-28T22:36:39.356Z,30.38
2022-10-28T22:39:08.998Z,32.53
2022-10-28T22:41:37.938Z,27.88
2022-10-28T22:44:07.817Z,34.45
2022-10-28T22:46:37.164Z,43.88
2022-10-28T22:49:06.821Z,34.05
2022-10-28T22:51:43.166Z,38.90
2022-10-28T22:54:12.057Z,39.47
2022-10-28T22:56:45.517Z,31.40
2022-10-28T22:59:15.975Z,40.58
2022-10-28T23:01:44.835Z,38.65
2022-10-28T23:04:16.725Z,54.53
2022-10-28T23:06:46.650Z,46.60
2022-10-28T23:09:20.547Z,42.03
2022-10-28T23:11:49.166Z,37.70
2022-10-28T23:14:18.182Z,46.80
2022-10-28T23:16:48.445Z,47.65
2022-10-28T23:19:17.245Z,48.08
2022-10-28T23:21:50.968Z,44.88
2022-10-28T23:24:20.377Z,47.08
2022-10-28T23:26:48.765Z,43.88
2022-10-28T23:29:19.163Z,43.80
2022-10-28T23:31:49.025Z,50.20
2022-10-28T23:34:21.870Z,58.65
2022-10-28T23:36:54.247Z,48.95
2022-10-28T23:39:22.924Z,44.08
2022-10-28T23:41:51.941Z,55.85
2022-10-28T23:44:21.078Z,57.58
2022-10-28T23:46:49.524Z,50.75
2022-10-28T23:49:17.875Z,40.05
2022-10-28T23:51:48.742Z,35.33
2022-10-28T23:54:19.712Z,49.05
2022-10-28T23:56:49.127Z,52.78
2022-10-28T23:59:19.865Z,50.53
